This is the latest recevied weather packets stored in our database for station/object OE-11208. If no packets are shown the sender has not sent any weather packets the latest 10 day(s).
| Time | Temp. | Humidity | Pressure | Rain* | Wind** | Luminosity | Snow |
|---|---|---|---|---|---|---|---|
| 1787963722 | 13.33° C | 82% | 1020.6 hPa | 0.76 mm | - | 0 W/m² | - |
| 1787963121 | 13.33° C | 79% | 1020.4 hPa | 0.76 mm | - | 0 W/m² | - |
| 1787962294 | 13.89° C | 76% | 1019.3 hPa | 0.51 mm | - | 0 W/m² | - |
| 1787961921 | 15° C | 70% | 1018.8 hPa | 0.25 mm | - | 0 W/m² | - |
| 1787961322 | 15° C | 70% | 1018.1 hPa | 0.25 mm | - | 0 W/m² | - |
| 1787960495 | 15° C | 72% | 1017.8 hPa | 0.25 mm | - | 0 W/m² | - |
| 1787960122 | 15.56° C | 74% | 1017.6 hPa | 0.25 mm | - | 0 W/m² | - |
| 1787959521 | 15.56° C | 75% | 1016.8 hPa | 0.25 mm | - | 0 W/m² | - |
| 1787958922 | 17.22° C | 65% | 1016.5 hPa | 0 mm | - | 0 W/m² | - |
| 1787958322 | 19.44° C | 68% | 1015.2 hPa | 0 mm | - | 0 W/m² | - |
| 1787957722 | 19.44° C | 70% | 1014.7 hPa | 0 mm | - | 0 W/m² | - |
| 1787956895 | 20° C | 70% | 1014.5 hPa | 0 mm | - | 0 W/m² | - |
| 1787956522 | 20° C | 70% | 1014.6 hPa | 0 mm | - | 0 W/m² | - |
| 1787955922 | 20° C | 71% | 1014.4 hPa | 0 mm | - | 0 W/m² | - |
| 1787955095 | 20° C | 68% | 1014.1 hPa | 0 mm | - | 0 W/m² | - |
| 1787954721 | 20° C | 71% | 1014 hPa | 0 mm | - | 0 W/m² | - |
| 1787954122 | 20° C | 72% | 1013.9 hPa | 0 mm | - | 0 W/m² | - |
| 1787953295 | 20° C | 72% | 1013.8 hPa | 0 mm | - | 0 W/m² | - |
| 1787952922 | 19.44° C | 76% | 1013.7 hPa | 0 mm | - | 0 W/m² | - |
| 1787952322 | 19.44° C | 75% | 1013.6 hPa | 0 mm | - | 0 W/m² | - |
| 1787951495 | 19.44° C | 78% | 1013.2 hPa | 0 mm | - | 0 W/m² | - |
| 1787951122 | 18.89° C | 79% | 1013.4 hPa | 0 mm | - | 0 W/m² | - |
| 1787950522 | 18.89° C | 80% | 1013.3 hPa | 0 mm | - | 0 W/m² | - |
| 1787949695 | 18.89° C | 79% | 1012.8 hPa | 0 mm | - | 0 W/m² | - |
| 1787949322 | 18.33° C | 83% | 1012.7 hPa | 0 mm | - | 0 W/m² | - |
* Rain latest hour (hover to see other rain measurements)
** Current wind speed in m/s (hover to see current wind gust speed)